aviador You're here:

GEML Decoded Metar

MELILLA in SPAIN
Report Time2017-11-23 22:00:00
UTC Time2017-11-23 22:17:59
Flight Rules vfr VFR
Wind250° at 03 kt
W.Decomp.*RWY 33: 0.6 kt HW 2.9 kt LCW
W.Rank250° ranks 6
Current wind is below 250° avg. (8.0)
Visibility9999 m
Phenomena:N/A
Clouds:N/A
Expected CloudBase > 2,400 ft AGL from Temp-Dew spread
CeilingNone
Temp13°C (ISA -2)
Dew Point07°C (67% RH)
AAT11.2°C
QNH1021 hPa
Density Alt-148 ft
Elevation180 ft
Report Wrong Elevation
Raw Report
GEML 232200Z AUTO 25003KT 9999 NCD 13/07 Q1021=

Extra information for GEML:More info

Metar Taf Metar & Taf Last 4 Metars F.Rules Stats Wind Profile Meteogram Temp Stats Airport Information Weather charts Add Link Nearby VenuesMetar ALERT Operation Metar Decoded Social comments